Time;durP1;ratioP1;P1;durP2;ratioP2;P2;SDS_P1;SDS_P2;PMS_P1;PMS_P2;Temp;Humidity;BMP_temperature;BMP_pressure;BME280_temperature;BME280_humidity;BME280_pressure;Samples;Min_cycle;Max_cycle;Signal;HPM_P1;HPM_P2
2024/04/11 00:02:09;;;;;;;1.87;1.20;;;2.70;99.90;;;;;;5347680;26;20273;-66
2024/04/11 00:04:34;;;;;;;0.40;0.30;;;2.70;99.90;;;;;;5362115;26;20234;-67
2024/04/11 00:07:00;;;;;;;1.70;0.80;;;2.60;99.90;;;;;;5347574;26;20272;-65
2024/04/11 00:09:25;;;;;;;1.00;0.97;;;2.50;99.90;;;;;;5373809;26;20264;-67
2024/04/11 00:11:51;;;;;;;1.33;0.97;;;2.40;99.90;;;;;;5362284;26;20338;-66
2024/04/11 00:14:16;;;;;;;1.77;0.90;;;2.50;99.90;;;;;;5376435;26;20586;-68
2024/04/11 00:16:42;;;;;;;0.60;0.53;;;2.40;99.90;;;;;;5364954;26;20234;-65
2024/04/11 00:19:07;;;;;;;3.80;1.17;;;2.40;99.90;;;;;;5373271;26;20233;-67
2024/04/11 00:21:33;;;;;;;2.80;1.13;;;2.30;99.90;;;;;;5352101;26;20322;-66
2024/04/11 00:23:59;;;;;;;0.53;0.50;;;2.30;99.90;;;;;;5342244;26;20768;-65
2024/04/11 00:26:24;;;;;;;0.70;0.70;;;2.20;99.90;;;;;;5369628;26;20234;-66
2024/04/11 00:28:50;;;;;;;0.73;0.57;;;2.20;99.90;;;;;;5369311;26;20288;-66
2024/04/11 00:31:16;;;;;;;0.70;0.60;;;2.20;99.90;;;;;;5361523;26;20233;-66
2024/04/11 00:33:54;;;;;;;1.17;0.60;;;2.10;99.90;;;;;;5361768;26;20725;-67
2024/04/11 00:36:23;;;;;;;0.33;0.33;;;2.10;99.90;;;;;;5362347;26;20229;-67
2024/04/11 00:38:53;;;;;;;0.90;0.90;;;2.10;99.90;;;;;;5379536;26;20241;-66
2024/04/11 00:41:19;;;;;;;0.70;0.47;;;2.10;99.90;;;;;;5358735;26;20265;-66
2024/04/11 00:43:45;;;;;;;5.20;0.80;;;2.10;99.90;;;;;;5371256;26;20748;-66
2024/04/11 00:46:11;;;;;;;0.87;0.83;;;2.10;99.90;;;;;;5346643;26;20348;-68
2024/04/11 00:48:39;;;;;;;2.80;0.87;;;2.10;99.90;;;;;;5354253;26;20816;-66
2024/04/11 00:51:07;;;;;;;1.13;1.03;;;2.10;99.90;;;;;;5364241;26;20234;-67
2024/04/11 00:53:33;;;;;;;1.47;0.97;;;2.00;99.90;;;;;;5364849;26;20304;-67
2024/04/11 00:55:59;;;;;;;2.47;0.80;;;2.00;99.90;;;;;;5364607;26;20272;-66
2024/04/11 00:58:25;;;;;;;0.57;0.50;;;2.00;99.90;;;;;;5357621;26;20250;-65
2024/04/11 01:00:54;;;;;;;1.60;0.80;;;2.00;99.90;;;;;;5358313;26;20888;-65
2024/04/11 01:03:21;;;;;;;2.63;0.70;;;2.00;99.90;;;;;;5362693;26;20229;-67
2024/04/11 01:05:47;;;;;;;1.73;0.80;;;2.00;99.90;;;;;;5364789;26;20230;-67
2024/04/11 01:08:12;;;;;;;0.37;0.37;;;1.90;99.90;;;;;;5345532;26;20322;-67
2024/04/11 01:10:38;;;;;;;0.30;0.30;;;1.80;99.90;;;;;;5368484;26;20543;-67
2024/04/11 01:13:07;;;;;;;0.73;0.50;;;1.70;99.90;;;;;;5350191;26;20336;-67
2024/04/11 01:15:37;;;;;;;0.80;0.67;;;1.70;99.90;;;;;;5378886;26;20721;-67
2024/04/11 01:18:03;;;;;;;0.40;0.40;;;1.70;99.90;;;;;;5377067;26;20234;-66
2024/04/11 01:20:29;;;;;;;0.60;0.47;;;1.70;99.90;;;;;;5365834;26;20582;-65
2024/04/11 01:22:55;;;;;;;0.60;0.60;;;1.70;99.90;;;;;;5350904;26;20749;-67
2024/04/11 01:25:21;;;;;;;0.67;0.40;;;1.60;99.90;;;;;;5350256;26;20297;-67
2024/04/11 01:27:47;;;;;;;1.73;0.77;;;1.70;99.90;;;;;;5364319;26;20249;-66
2024/04/11 01:30:13;;;;;;;0.37;0.30;;;1.70;99.90;;;;;;5363822;26;20371;-67
2024/04/11 01:32:38;;;;;;;0.40;0.40;;;1.70;99.90;;;;;;5354296;26;20238;-67
2024/04/11 01:35:05;;;;;;;1.67;0.70;;;1.80;99.90;;;;;;5374289;26;20289;-66
2024/04/11 01:37:30;;;;;;;1.53;0.93;;;1.70;99.90;;;;;;5356136;26;20276;-67
2024/04/11 01:39:56;;;;;;;0.43;0.43;;;1.80;99.90;;;;;;5371965;26;20229;-64
2024/04/11 01:42:22;;;;;;;1.03;0.40;;;1.80;99.90;;;;;;5350078;26;20276;-66
2024/04/11 01:44:48;;;;;;;0.60;0.60;;;1.80;99.90;;;;;;5351985;26;20310;-67
2024/04/11 01:47:14;;;;;;;0.80;0.80;;;1.80;99.90;;;;;;5343837;26;20231;-67
2024/04/11 01:49:41;;;;;;;0.70;0.60;;;1.80;99.90;;;;;;5352841;26;20241;-66
2024/04/11 01:52:09;;;;;;;0.63;0.30;;;1.90;99.90;;;;;;5364081;26;20278;-67
2024/04/11 01:54:39;;;;;;;2.13;0.90;;;1.90;99.90;;;;;;5369192;26;20235;-67
2024/04/11 01:57:06;;;;;;;0.30;0.30;;;1.90;99.90;;;;;;5372470;26;20276;-67
2024/04/11 01:59:32;;;;;;;0.70;0.47;;;1.80;99.90;;;;;;5342790;26;20238;-68
2024/04/11 02:01:57;;;;;;;0.27;0.27;;;1.80;99.90;;;;;;5372679;26;20229;-67
2024/04/11 02:04:23;;;;;;;0.27;0.27;;;1.80;99.90;;;;;;5343597;26;20625;-67
2024/04/11 02:06:51;;;;;;;0.67;0.53;;;1.70;99.90;;;;;;5370521;26;20233;-67
2024/04/11 02:09:22;;;;;;;0.40;0.40;;;1.70;99.90;;;;;;5348276;26;20237;-67
2024/04/11 02:11:51;;;;;;;0.60;0.50;;;1.70;99.90;;;;;;5378583;26;20280;-67
2024/04/11 02:14:18;;;;;;;1.00;0.40;;;1.70;99.90;;;;;;5344410;26;20332;-67
2024/04/11 02:16:44;;;;;;;1.37;0.73;;;1.70;99.90;;;;;;5354515;26;20323;-67
2024/04/11 02:19:12;;;;;;;1.07;0.80;;;1.70;99.90;;;;;;5377931;26;20347;-67
2024/04/11 02:21:41;;;;;;;0.87;0.50;;;1.70;99.90;;;;;;5377629;26;20275;-66
2024/04/11 02:24:08;;;;;;;2.57;0.80;;;1.70;99.90;;;;;;5346679;26;20320;-67
2024/04/11 02:26:37;;;;;;;1.07;0.97;;;1.60;99.90;;;;;;5366534;26;20241;-67
2024/04/11 02:29:03;;;;;;;0.73;0.63;;;1.50;99.90;;;;;;5362187;26;20233;-66
2024/04/11 02:31:29;;;;;;;0.97;0.47;;;1.40;99.90;;;;;;5350731;26;20279;-67
2024/04/11 02:33:57;;;;;;;2.30;0.93;;;1.40;99.90;;;;;;5378066;26;20233;-67
2024/04/11 02:36:29;;;;;;;1.57;0.53;;;1.30;99.90;;;;;;5363586;26;20229;-66
2024/04/11 02:38:58;;;;;;;0.33;0.33;;;1.30;99.90;;;;;;5377959;26;20287;-65
2024/04/11 02:41:24;;;;;;;2.10;1.03;;;1.30;99.90;;;;;;5356254;26;20238;-67
2024/04/11 02:43:49;;;;;;;0.50;0.30;;;1.20;99.90;;;;;;5355739;26;20305;-66
2024/04/11 02:46:15;;;;;;;0.73;0.50;;;1.20;99.90;;;;;;5344322;26;20238;-66
2024/04/11 02:48:44;;;;;;;0.50;0.50;;;1.10;99.90;;;;;;5367668;26;20238;-66
2024/04/11 02:51:11;;;;;;;0.40;0.40;;;1.20;99.90;;;;;;5345095;26;20239;-67
2024/04/11 02:53:39;;;;;;;1.03;0.93;;;1.10;99.90;;;;;;5367080;26;20307;-67
2024/04/11 02:56:09;;;;;;;0.30;0.30;;;1.10;99.90;;;;;;5375423;26;20289;-65
2024/04/11 02:58:35;;;;;;;0.70;0.70;;;1.10;99.90;;;;;;5357164;26;20227;-67
2024/04/11 03:01:09;;;;;;;0.60;0.30;;;1.20;99.90;;;;;;5369676;26;20245;-66
2024/04/11 03:03:35;;;;;;;9.93;0.50;;;1.20;99.90;;;;;;5366009;26;20770;-67
2024/04/11 03:06:18;;;;;;;2.73;0.67;;;1.10;99.90;;;;;;5362227;26;20239;-67
2024/04/11 03:08:44;;;;;;;0.33;0.33;;;1.10;99.90;;;;;;5356980;26;20285;-66
2024/04/11 03:11:11;;;;;;;1.53;0.67;;;1.10;99.90;;;;;;5344876;26;20274;-65
2024/04/11 03:13:37;;;;;;;0.30;0.30;;;1.10;99.90;;;;;;5368155;26;20243;-64
2024/04/11 03:16:03;;;;;;;1.00;0.50;;;1.10;99.90;;;;;;5343634;26;20741;-65
2024/04/11 03:18:29;;;;;;;0.20;0.20;;;1.10;99.90;;;;;;5355067;26;20238;-66
2024/04/11 03:20:56;;;;;;;0.70;0.33;;;1.10;99.90;;;;;;5356395;26;20230;-66
2024/04/11 03:23:24;;;;;;;0.53;0.43;;;1.00;99.90;;;;;;5342051;26;20602;-65
2024/04/11 03:25:50;;;;;;;1.40;0.60;;;0.90;99.90;;;;;;5369523;26;20268;-66
2024/04/11 03:28:16;;;;;;;0.50;0.43;;;1.00;99.90;;;;;;5376757;26;20237;-66
2024/04/11 03:31:05;;;;;;;0.30;0.30;;;1.00;99.90;;;;;;5376507;26;20271;-65
2024/04/11 03:33:40;;;;;;;0.40;0.40;;;1.00;99.90;;;;;;5354771;26;20242;-65
2024/04/11 03:36:10;;;;;;;1.37;0.60;;;1.00;99.90;;;;;;5372709;26;20635;-64
2024/04/11 03:38:37;;;;;;;1.43;0.70;;;1.00;99.90;;;;;;5377302;26;20229;-65
2024/04/11 03:41:04;;;;;;;0.43;0.27;;;0.90;99.90;;;;;;5375502;26;20233;-65
2024/04/11 03:43:34;;;;;;;0.30;0.30;;;1.00;99.90;;;;;;5356520;26;20239;-67
2024/04/11 03:46:06;;;;;;;0.50;0.40;;;1.10;99.90;;;;;;5342425;26;20269;-66
2024/04/11 03:48:33;;;;;;;0.50;0.50;;;1.10;99.90;;;;;;5362208;26;20597;-66
2024/04/11 03:51:07;;;;;;;0.83;0.57;;;0.90;99.90;;;;;;5347385;26;20716;-66
2024/04/11 03:53:32;;;;;;;0.33;0.33;;;1.00;99.90;;;;;;5354180;26;20278;-66
2024/04/11 03:55:58;;;;;;;0.40;0.40;;;0.80;99.90;;;;;;5370625;26;20272;-68
2024/04/11 03:58:25;;;;;;;0.53;0.47;;;0.70;99.90;;;;;;5356613;26;20238;-64
2024/04/11 04:00:50;;;;;;;0.57;0.20;;;0.70;99.90;;;;;;5368331;26;20740;-66
2024/04/11 04:03:16;;;;;;;0.23;0.23;;;0.70;99.90;;;;;;5372074;26;20271;-66
2024/04/11 04:05:42;;;;;;;0.70;0.60;;;0.70;99.90;;;;;;5367077;26;20234;-67
2024/04/11 04:08:08;;;;;;;0.47;0.40;;;0.70;99.90;;;;;;5361770;26;20614;-66
2024/04/11 04:10:34;;;;;;;0.30;0.30;;;0.70;99.90;;;;;;5367324;26;20223;-65
2024/04/11 04:12:59;;;;;;;0.20;0.20;;;0.70;99.90;;;;;;5344513;26;20226;-65
2024/04/11 04:15:25;;;;;;;1.33;0.80;;;0.80;99.90;;;;;;5344797;26;20343;-65
2024/04/11 04:17:51;;;;;;;0.20;0.20;;;0.70;99.90;;;;;;5344535;26;20717;-65
2024/04/11 04:20:17;;;;;;;0.47;0.47;;;0.70;99.90;;;;;;5362849;26;20234;-65
2024/04/11 04:22:43;;;;;;;0.60;0.60;;;0.70;99.90;;;;;;5365522;26;20229;-65
2024/04/11 04:25:11;;;;;;;0.93;0.70;;;0.80;99.90;;;;;;5362547;26;20241;-65
2024/04/11 04:27:37;;;;;;;0.77;0.53;;;0.90;99.90;;;;;;5359138;26;20242;-65
2024/04/11 04:30:09;;;;;;;0.20;0.20;;;0.90;99.90;;;;;;5373094;26;20782;-65
2024/04/11 04:32:38;;;;;;;0.20;0.20;;;0.80;99.90;;;;;;5359594;26;20265;-65
2024/04/11 04:35:09;;;;;;;1.57;0.80;;;0.80;99.90;;;;;;5344011;26;20268;-65
2024/04/11 04:37:35;;;;;;;0.30;0.30;;;0.70;99.90;;;;;;5379304;26;20693;-65
2024/04/11 04:40:02;;;;;;;0.67;0.40;;;0.70;99.90;;;;;;5379132;26;20732;-65
2024/04/11 04:42:28;;;;;;;0.90;0.80;;;0.70;99.90;;;;;;5379713;26;20280;-65
2024/04/11 04:44:54;;;;;;;0.47;0.47;;;0.70;99.90;;;;;;5363454;26;20234;-65
2024/04/11 04:47:28;;;;;;;0.20;0.20;;;0.80;99.90;;;;;;5362673;26;20316;-65
2024/04/11 04:49:55;;;;;;;0.70;0.70;;;0.90;99.90;;;;;;5377853;26;20281;-65
2024/04/11 04:52:25;;;;;;;1.70;0.60;;;1.00;99.90;;;;;;5342192;26;20230;-65
2024/04/11 04:54:54;;;;;;;0.70;0.67;;;1.10;99.90;;;;;;5355735;26;20245;-65
2024/04/11 04:57:21;;;;;;;0.77;0.63;;;1.10;99.90;;;;;;5358693;26;20337;-65
2024/04/11 04:59:46;;;;;;;0.93;0.63;;;1.20;99.90;;;;;;5353202;26;20280;-65
2024/04/11 05:02:13;;;;;;;0.50;0.50;;;1.20;99.90;;;;;;5360293;26;20581;-65
2024/04/11 05:04:39;;;;;;;0.83;0.67;;;1.20;99.90;;;;;;5343548;26;20227;-65
2024/04/11 05:07:08;;;;;;;0.60;0.60;;;1.20;99.90;;;;;;5373940;26;20276;-65
2024/04/11 05:09:37;;;;;;;0.40;0.40;;;1.30;99.90;;;;;;5377486;26;20250;-65
2024/04/11 05:12:04;;;;;;;0.70;0.70;;;1.40;99.90;;;;;;5363782;26;20226;-65
2024/04/11 05:14:33;;;;;;;2.27;0.77;;;1.40;99.90;;;;;;5370568;26;20412;-65
2024/04/11 05:16:59;;;;;;;0.73;0.73;;;1.40;99.90;;;;;;5343017;26;20242;-65
2024/04/11 05:19:25;;;;;;;1.10;0.77;;;1.50;99.90;;;;;;5356955;26;20297;-65
2024/04/11 05:21:51;;;;;;;1.60;1.07;;;1.60;99.90;;;;;;5369993;26;20230;-65
2024/04/11 05:24:17;;;;;;;1.77;1.03;;;1.70;99.90;;;;;;5358325;26;20293;-65
2024/04/11 05:26:48;;;;;;;0.93;0.63;;;1.70;99.90;;;;;;5352269;26;20573;-65
2024/04/11 05:29:15;;;;;;;1.00;0.90;;;1.80;99.90;;;;;;5373258;26;20684;-65
2024/04/11 05:31:41;;;;;;;0.90;0.70;;;1.90;99.90;;;;;;5357866;26;20227;-65
2024/04/11 05:34:07;;;;;;;0.80;0.70;;;2.00;99.90;;;;;;5373422;26;20677;-65
2024/04/11 05:36:32;;;;;;;0.77;0.63;;;2.10;99.90;;;;;;5355119;26;20235;-65
2024/04/11 05:38:58;;;;;;;4.37;1.13;;;2.20;99.90;;;;;;5368094;26;20238;-65
2024/04/11 05:41:25;;;;;;;2.33;0.80;;;2.30;99.90;;;;;;5370905;26;20265;-65
2024/04/11 05:43:51;;;;;;;1.30;0.93;;;2.40;99.90;;;;;;5342999;26;20344;-65
2024/04/11 05:46:22;;;;;;;1.07;0.77;;;2.50;99.90;;;;;;5342890;26;20729;-64
2024/04/11 05:48:48;;;;;;;1.33;0.93;;;2.70;99.90;;;;;;5356883;26;20719;-65
2024/04/11 05:51:15;;;;;;;2.97;0.60;;;2.90;99.90;;;;;;5359967;26;20226;-65
2024/04/11 05:53:41;;;;;;;1.57;0.83;;;3.00;99.90;;;;;;5363103;26;20241;-65
2024/04/11 05:56:08;;;;;;;1.40;0.80;;;3.10;99.90;;;;;;5373663;26;20299;-65
2024/04/11 05:58:35;;;;;;;1.07;0.97;;;3.30;99.90;;;;;;5356194;26;20382;-65
2024/04/11 06:01:05;;;;;;;0.83;0.70;;;3.40;99.90;;;;;;5356516;26;20264;-65
2024/04/11 06:03:32;;;;;;;1.30;0.77;;;3.50;99.90;;;;;;5355254;26;20356;-64
2024/04/11 06:05:57;;;;;;;0.93;0.80;;;3.60;99.90;;;;;;5371380;26;20338;-65
2024/04/11 06:08:23;;;;;;;3.50;1.07;;;3.80;99.90;;;;;;5362292;26;20712;-65
2024/04/11 06:10:49;;;;;;;1.67;1.13;;;3.90;99.90;;;;;;5362499;26;20301;-65
2024/04/11 06:13:17;;;;;;;1.33;0.73;;;4.20;99.90;;;;;;5377154;26;20618;-65
2024/04/11 06:15:43;;;;;;;1.43;0.60;;;4.40;99.90;;;;;;5352210;26;20357;-65
2024/04/11 06:18:10;;;;;;;2.23;1.57;;;4.70;99.90;;;;;;5342079;26;20285;-64
2024/04/11 06:20:38;;;;;;;1.83;1.20;;;4.90;99.90;;;;;;5349757;26;20293;-64
2024/04/11 06:23:08;;;;;;;2.77;1.23;;;5.00;99.90;;;;;;5347419;26;20331;-65
2024/04/11 06:25:36;;;;;;;9.47;1.10;;;5.10;99.90;;;;;;5364923;26;20716;-65
2024/04/11 06:28:02;;;;;;;1.13;0.90;;;5.20;99.90;;;;;;5360516;26;20826;-65
2024/04/11 06:30:27;;;;;;;2.17;1.23;;;5.20;99.90;;;;;;5376305;26;20237;-64
2024/04/11 06:32:57;;;;;;;1.57;1.33;;;5.30;99.90;;;;;;5376882;26;20234;-65
2024/04/11 06:35:24;;;;;;;1.67;1.43;;;5.20;99.90;;;;;;5371236;26;20234;-65
2024/04/11 06:37:51;;;;;;;2.17;1.33;;;5.10;99.90;;;;;;5356480;26;20277;-65
2024/04/11 06:40:16;;;;;;;1.43;0.97;;;5.10;99.90;;;;;;5374214;26;20293;-65
2024/04/11 06:42:50;;;;;;;3.37;1.37;;;5.10;99.90;;;;;;5376832;26;20319;-65
2024/04/11 06:45:23;;;;;;;1.17;1.03;;;5.10;99.90;;;;;;5362063;26;20334;-64
2024/04/11 06:47:49;;;;;;;1.87;1.23;;;5.20;99.90;;;;;;5362185;26;20284;-65
2024/04/11 06:50:15;;;;;;;1.57;0.90;;;5.20;99.90;;;;;;5375606;26;20229;-65
2024/04/11 06:52:42;;;;;;;2.67;1.53;;;5.30;99.90;;;;;;5352252;26;20782;-65
2024/04/11 06:55:08;;;;;;;1.23;0.97;;;5.30;99.90;;;;;;5358433;26;20238;-65
2024/04/11 06:57:40;;;;;;;1.43;0.80;;;5.40;99.90;;;;;;5341330;26;20262;-65
2024/04/11 07:00:25;;;;;;;2.17;1.43;;;5.40;99.90;;;;;;5340978;26;20281;-65
2024/04/11 07:02:54;;;;;;;1.70;1.03;;;5.60;99.90;;;;;;5341892;26;20677;-65
2024/04/11 07:05:22;;;;;;;1.13;0.77;;;5.80;99.90;;;;;;5402316;26;20418;-65
2024/04/11 07:07:54;;;;;;;2.67;1.17;;;5.80;99.90;;;;;;5362295;26;20234;-65
2024/04/11 07:10:32;;;;;;;1.67;1.10;;;5.90;99.90;;;;;;5356590;26;20775;-65
2024/04/11 07:12:59;;;;;;;2.13;1.40;;;6.00;99.90;;;;;;5341705;26;20230;-65
2024/04/11 07:15:29;;;;;;;3.50;1.57;;;6.10;99.90;;;;;;5361434;26;20238;-65
2024/04/11 07:17:58;;;;;;;5.43;1.83;;;6.20;99.90;;;;;;5348838;26;20296;-65
2024/04/11 07:20:25;;;;;;;3.73;1.23;;;6.60;99.90;;;;;;5374862;26;20339;-65
2024/04/11 07:22:55;;;;;;;1.53;1.03;;;7.10;99.90;;;;;;5364398;26;20235;-65
2024/04/11 07:25:25;;;;;;;2.50;2.17;;;7.80;99.90;;;;;;5339529;26;20292;-65
2024/04/11 07:27:55;;;;;;;2.93;1.60;;;8.50;99.90;;;;;;5353543;26;20342;-65
2024/04/11 07:30:23;;;;;;;3.47;1.77;;;9.10;99.90;;;;;;5375221;26;20590;-65
2024/04/11 07:32:52;;;;;;;5.30;1.57;;;9.60;99.90;;;;;;5350059;26;20290;-65
2024/04/11 07:35:18;;;;;;;3.43;1.63;;;10.20;99.90;;;;;;5354776;26;20378;-65
2024/04/11 07:37:44;;;;;;;2.33;1.37;;;10.10;99.90;;;;;;5338885;26;20601;-65
2024/04/11 07:40:28;;;;;;;4.67;1.83;;;10.20;99.90;;;;;;5340506;26;20324;-65
2024/04/11 07:43:06;;;;;;;2.63;1.53;;;10.30;99.90;;;;;;5368532;26;20276;-66
2024/04/11 07:45:35;;;;;;;3.17;1.20;;;10.70;99.90;;;;;;5348362;26;20234;-66
2024/04/11 07:48:05;;;;;;;1.63;1.10;;;11.20;99.90;;;;;;5360229;26;20276;-65
2024/04/11 07:50:32;;;;;;;2.77;1.30;;;11.70;99.90;;;;;;5347227;26;20233;-66
2024/04/11 07:52:57;;;;;;;5.53;1.57;;;12.10;99.90;;;;;;5347884;26;20645;-65
2024/04/11 07:55:23;;;;;;;3.03;1.20;;;12.70;99.90;;;;;;5360088;26;20234;-66
2024/04/11 07:57:51;;;;;;;5.10;1.33;;;13.00;99.90;;;;;;5375583;26;20284;-66
2024/04/11 08:00:27;;;;;;;1.77;1.00;;;13.10;99.90;;;;;;5360286;26;20332;-66
2024/04/11 08:02:57;;;;;;;1.93;0.93;;;13.20;99.90;;;;;;5363305;26;20238;-66
2024/04/11 08:05:24;;;;;;;1.70;1.03;;;13.40;99.90;;;;;;5360027;26;20230;-66
2024/04/11 08:07:51;;;;;;;12.63;3.77;;;13.60;99.90;;;;;;5375315;26;20233;-66
2024/04/11 08:10:20;;;;;;;4.13;1.40;;;13.20;99.90;;;;;;5356400;26;20710;-66
2024/04/11 08:12:46;;;;;;;2.50;1.20;;;12.90;99.90;;;;;;5364149;26;21793;-66
2024/04/11 08:15:12;;;;;;;2.93;1.27;;;13.10;99.90;;;;;;5355984;26;20231;-66
2024/04/11 08:17:37;;;;;;;1.67;1.10;;;13.20;99.90;;;;;;5354752;26;20238;-66
2024/04/11 08:20:12;;;;;;;2.43;1.00;;;13.20;99.90;;;;;;5369153;26;20237;-65
2024/04/11 08:22:38;;;;;;;2.17;1.10;;;13.30;99.90;;;;;;5366221;26;20233;-66
2024/04/11 08:25:06;;;;;;;3.53;1.07;;;13.30;99.90;;;;;;5352772;26;20280;-65
2024/04/11 08:27:32;;;;;;;2.67;1.20;;;13.40;99.90;;;;;;5361627;26;20277;-66
2024/04/11 08:29:58;;;;;;;5.83;1.60;;;13.60;99.90;;;;;;5346960;26;20574;-66
2024/04/11 08:32:25;;;;;;;1.47;0.87;;;13.30;99.90;;;;;;5354518;26;20227;-66
2024/04/11 08:34:52;;;;;;;2.87;1.00;;;13.20;99.90;;;;;;5351970;26;20353;-66
2024/04/11 08:37:18;;;;;;;1.93;0.90;;;13.30;99.90;;;;;;5342640;26;20280;-66
2024/04/11 08:39:44;;;;;;;2.20;0.77;;;13.40;99.90;;;;;;5337552;26;20239;-66
2024/04/11 08:42:12;;;;;;;2.87;1.07;;;13.50;99.90;;;;;;5353972;26;20370;-66
2024/04/11 08:44:41;;;;;;;1.40;0.70;;;13.50;99.90;;;;;;5352885;26;20282;-66
2024/04/11 08:47:06;;;;;;;1.17;0.83;;;13.60;99.90;;;;;;5352481;26;20763;-66
2024/04/11 08:49:32;;;;;;;2.07;0.50;;;13.60;99.90;;;;;;5346555;26;20229;-66
2024/04/11 08:52:01;;;;;;;3.60;0.70;;;13.50;99.90;;;;;;5360798;26;20229;-66
2024/04/11 08:54:28;;;;;;;1.43;0.67;;;13.60;99.90;;;;;;5374514;26;20644;-66
2024/04/11 08:56:54;;;;;;;0.43;0.40;;;13.70;99.90;;;;;;5375166;26;20358;-66
2024/04/11 08:59:24;;;;;;;2.40;1.17;;;13.70;99.90;;;;;;5343255;26;20238;-66
2024/04/11 09:01:49;;;;;;;0.70;0.40;;;13.70;99.90;;;;;;5343593;26;20230;-66
2024/04/11 09:04:15;;;;;;;1.83;0.47;;;13.80;99.90;;;;;;5343825;26;20804;-66
2024/04/11 09:06:42;;;;;;;0.30;0.30;;;13.90;99.90;;;;;;5353273;26;20230;-66
2024/04/11 09:09:15;;;;;;;0.73;0.40;;;13.90;99.90;;;;;;5363866;26;20772;-66
2024/04/11 09:11:44;;;;;;;2.10;0.40;;;14.00;99.90;;;;;;5364430;26;20225;-66
2024/04/11 09:14:16;;;;;;;2.43;0.40;;;14.10;99.90;;;;;;5357894;26;20765;-66
2024/04/11 09:16:42;;;;;;;1.23;0.50;;;14.10;99.90;;;;;;5406085;26;20233;-66
2024/04/11 09:19:12;;;;;;;0.50;0.40;;;14.20;99.90;;;;;;5362556;26;20272;-66
2024/04/11 09:21:45;;;;;;;0.90;0.67;;;14.20;99.90;;;;;;5342903;26;20235;-66
2024/04/11 09:24:16;;;;;;;0.93;0.47;;;14.30;99.90;;;;;;5364181;26;20266;-66
2024/04/11 09:26:43;;;;;;;1.63;0.60;;;14.30;99.90;;;;;;5378624;26;20327;-66
2024/04/11 09:29:11;;;;;;;0.93;0.37;;;14.30;99.90;;;;;;5363664;26;20752;-66
2024/04/11 09:31:37;;;;;;;1.23;0.50;;;14.30;99.90;;;;;;5363269;26;20238;-66
2024/04/11 09:34:12;;;;;;;0.50;0.30;;;14.30;99.90;;;;;;5377741;26;20289;-66
2024/04/11 09:36:48;;;;;;;2.23;0.33;;;14.30;99.90;;;;;;5351669;26;20238;-66
2024/04/11 09:42:11;;;;;;;1.83;0.60;;;14.40;99.90;;;;;;5373132;26;20284;-66
2024/04/11 09:44:44;;;;;;;1.87;0.60;;;14.50;99.90;;;;;;5369863;26;20710;-66
2024/04/11 09:47:14;;;;;;;4.53;0.50;;;14.60;99.90;;;;;;5357660;26;20227;-66
2024/04/11 09:49:40;;;;;;;1.13;0.60;;;14.50;99.90;;;;;;5349429;26;20292;-66
2024/04/11 09:52:10;;;;;;;1.03;0.57;;;14.60;99.90;;;;;;5363718;26;20242;-66
2024/04/11 09:54:38;;;;;;;0.73;0.40;;;14.50;99.90;;;;;;5369802;26;20589;-66
2024/04/11 09:57:05;;;;;;;0.53;0.50;;;14.60;99.90;;;;;;5371814;26;20323;-67
2024/04/11 09:59:31;;;;;;;0.47;0.33;;;14.80;99.90;;;;;;5355204;26;20328;-66
2024/04/11 10:02:01;;;;;;;0.50;0.30;;;14.90;99.90;;;;;;5370668;26;20272;-67
2024/04/11 10:04:35;;;;;;;0.43;0.23;;;15.00;99.90;;;;;;5357225;26;20573;-66
2024/04/11 10:07:08;;;;;;;0.83;0.50;;;15.20;99.90;;;;;;5357016;26;20233;-67
2024/04/11 10:09:34;;;;;;;0.77;0.40;;;15.20;99.90;;;;;;5363489;26;20297;-66
2024/04/11 10:12:11;;;;;;;1.13;0.57;;;15.20;99.90;;;;;;5363203;26;20284;-66
2024/04/11 10:14:40;;;;;;;0.30;0.30;;;15.30;99.90;;;;;;5354997;26;20294;-66
2024/04/11 10:17:07;;;;;;;3.10;0.33;;;15.50;99.90;;;;;;5372406;26;20788;-66
2024/04/11 10:19:38;;;;;;;0.50;0.30;;;15.60;99.90;;;;;;5360487;26;20855;-66
2024/04/11 10:22:05;;;;;;;1.67;0.50;;;15.60;99.90;;;;;;5377113;26;20279;-66
2024/04/11 10:24:36;;;;;;;8.90;0.63;;;15.70;99.90;;;;;;5363725;26;20237;-64
2024/04/11 10:27:17;;;;;;;3.03;0.60;;;15.90;99.90;;;;;;5377320;26;20280;-65
2024/04/11 10:29:48;;;;;;;2.80;0.40;;;16.20;99.90;;;;;;5362001;26;20245;-65
2024/04/11 10:32:32;;;;;;;3.17;0.30;;;16.20;99.90;;;;;;5361062;26;20251;-65
2024/04/11 10:34:58;;;;;;;1.03;0.67;;;16.30;99.90;;;;;;5349169;26;20230;-65
2024/04/11 10:37:29;;;;;;;0.63;0.23;;;16.40;99.90;;;;;;5356491;26;20227;-65
2024/04/11 10:39:57;;;;;;;2.17;0.30;;;16.50;99.90;;;;;;5342180;26;20239;-66
2024/04/11 10:42:36;;;;;;;3.23;1.00;;;16.50;99.90;;;;;;5342624;26;20242;-65
2024/04/11 10:45:11;;;;;;;2.50;0.60;;;16.50;99.90;;;;;;5356530;26;20225;-65
2024/04/11 10:47:41;;;;;;;4.83;0.30;;;16.70;99.90;;;;;;5338742;26;20369;-67
2024/04/11 10:50:10;;;;;;;2.63;0.40;;;16.80;99.90;;;;;;5368388;26;20246;-67
2024/04/11 10:52:39;;;;;;;1.80;0.30;;;16.90;99.90;;;;;;5342474;26;20293;-67
2024/04/11 10:55:22;;;;;;;2.63;1.10;;;16.90;99.90;;;;;;5356873;26;20792;-67
2024/04/11 10:58:08;;;;;;;4.10;0.30;;;16.80;99.90;;;;;;5361280;26;20275;-67
2024/04/11 11:03:40;;;;;;;1.57;0.20;;;16.60;99.90;;;;;;5358501;26;20306;-67
2024/04/11 11:06:12;;;;;;;0.30;0.20;;;16.60;99.90;;;;;;5342548;26;20282;-67
2024/04/11 11:08:43;;;;;;;1.27;0.57;;;16.80;99.90;;;;;;5354117;26;20247;-67
2024/04/11 11:11:14;;;;;;;0.57;0.33;;;16.80;99.90;;;;;;5368713;26;20241;-67
2024/04/11 11:13:47;;;;;;;2.47;0.57;;;17.00;99.90;;;;;;5365358;26;20276;-67
2024/04/11 11:16:21;;;;;;;1.90;0.50;;;16.90;99.90;;;;;;5348312;26;20667;-67
2024/04/11 11:18:47;;;;;;;4.53;0.30;;;16.70;99.90;;;;;;5364729;26;20239;-67
2024/04/11 11:21:16;;;;;;;0.40;0.30;;;16.70;99.90;;;;;;5354634;26;20282;-67
2024/04/11 11:23:45;;;;;;;0.20;0.20;;;16.70;99.90;;;;;;5365599;26;20272;-66
2024/04/11 11:26:12;;;;;;;0.53;0.30;;;16.60;99.90;;;;;;5362169;26;20285;-67
2024/04/11 11:28:38;;;;;;;1.30;0.40;;;16.50;99.90;;;;;;5360815;26;20238;-67
2024/04/11 11:31:04;;;;;;;0.10;0.10;;;16.70;99.90;;;;;;5361582;26;20297;-67
2024/04/11 11:33:30;;;;;;;2.37;0.47;;;16.70;99.90;;;;;;5355997;26;20231;-66
2024/04/11 11:35:56;;;;;;;2.63;0.40;;;16.90;99.90;;;;;;5354455;26;20556;-68
2024/04/11 11:38:22;;;;;;;1.57;0.70;;;16.90;99.90;;;;;;5370278;26;20325;-68
2024/04/11 11:40:53;;;;;;;3.67;0.27;;;17.10;99.90;;;;;;5355924;26;20332;-67
2024/04/11 11:43:20;;;;;;;3.33;0.70;;;17.20;99.90;;;;;;5360087;26;20321;-67
2024/04/11 11:48:31;;;;;;;0.30;0.23;;;17.20;99.90;;;;;;5361934;26;20339;-67
2024/04/11 11:51:05;;;;;;;2.37;0.50;;;17.20;99.90;;;;;;5355002;26;20281;-67
2024/04/11 11:53:45;;;;;;;0.87;0.30;;;17.30;99.90;;;;;;5384061;26;20721;-66
2024/04/11 11:56:12;;;;;;;0.10;0.10;;;17.40;99.90;;;;;;5360144;26;20748;-67
2024/04/11 11:58:43;;;;;;;1.23;0.30;;;17.40;99.90;;;;;;5369485;26;20282;-67
2024/04/11 12:02:13;;;;;;;0.93;0.43;;;17.60;99.90;;;;;;5355281;26;20233;-67
2024/04/11 12:04:07;;;;;;;1.07;0.40;;;17.60;99.90;;;;;;5356402;26;20323;-66
2024/04/11 12:06:34;;;;;;;0.40;0.30;;;17.80;99.90;;;;;;5368659;26;20341;-67
2024/04/11 12:09:02;;;;;;;1.23;0.60;;;18.00;99.90;;;;;;5340589;26;20722;-67
2024/04/11 12:11:29;;;;;;;2.00;0.20;;;18.20;99.90;;;;;;5368475;26;20310;-67
2024/04/11 12:14:02;;;;;;;4.40;0.60;;;18.20;99.90;;;;;;5355198;26;20273;-67
2024/04/11 12:16:38;;;;;;;0.47;0.20;;;18.40;99.90;;;;;;5345855;26;20657;-67
2024/04/11 12:19:04;;;;;;;0.40;0.30;;;18.40;99.90;;;;;;5361043;26;20245;-66
2024/04/11 12:21:37;;;;;;;1.10;0.40;;;18.30;99.90;;;;;;5368503;26;20332;-65
2024/04/11 12:24:03;;;;;;;0.50;0.20;;;18.50;99.90;;;;;;5354684;26;20346;-66
2024/04/11 12:26:32;;;;;;;3.43;0.50;;;18.70;99.90;;;;;;5361253;26;20246;-67
2024/04/11 12:28:58;;;;;;;1.17;0.30;;;19.10;99.90;;;;;;5362848;26;20635;-67
2024/04/11 12:31:28;;;;;;;0.20;0.20;;;19.20;99.90;;;;;;5368943;26;20225;-67
2024/04/11 12:33:56;;;;;;;3.10;0.40;;;19.20;99.90;;;;;;5358326;26;20714;-67
2024/04/11 12:39:12;;;;;;;1.00;0.30;;;19.30;99.90;;;;;;5349879;26;20269;-66
2024/04/11 12:41:41;;;;;;;1.60;0.30;;;19.40;99.90;;;;;;5370809;26;20235;-66
2024/04/11 12:44:13;;;;;;;0.50;0.20;;;19.20;99.90;;;;;;5356955;26;20335;-66
2024/04/11 12:46:49;;;;;;;0.20;0.10;;;19.10;99.90;;;;;;5371137;26;20234;-67
2024/04/11 12:49:15;;;;;;;1.23;0.30;;;19.30;99.90;;;;;;5355633;26;20241;-68
2024/04/11 12:51:45;;;;;;;2.30;0.77;;;19.60;99.90;;;;;;5353002;26;20315;-67
2024/04/11 12:54:15;;;;;;;1.90;0.10;;;19.70;99.90;;;;;;5378831;26;20768;-67
2024/04/11 12:56:45;;;;;;;0.30;0.20;;;20.10;99.90;;;;;;5355597;26;20738;-67
2024/04/11 12:59:27;;;;;;;0.80;0.50;;;20.40;99.90;;;;;;5343328;26;20243;-67
2024/04/11 13:02:01;;;;;;;2.93;0.87;;;20.60;99.90;;;;;;5356113;26;20268;-67
2024/04/11 13:04:33;;;;;;;0.43;0.40;;;20.40;99.90;;;;;;5349496;26;20229;-66
2024/04/11 13:07:10;;;;;;;0.63;0.27;;;20.30;99.90;;;;;;5379070;26;20229;-67
2024/04/11 13:09:48;;;;;;;1.23;0.30;;;20.40;99.90;;;;;;5370427;26;20242;-67
2024/04/11 13:12:16;;;;;;;1.87;0.30;;;20.50;99.90;;;;;;5358229;26;20238;-68